Time;durP1;ratioP1;P1;durP2;ratioP2;P2;SDS_P1;SDS_P2;PMS_P1;PMS_P2;Temp;Humidity;BMP_temperature;BMP_pressure;BME280_temperature;BME280_humidity;BME280_pressure;Samples;Min_cycle;Max_cycle;Signal;HPM_P1;HPM_P2
2022/02/11 00:05:02;;;;;;;7.05;6.35;;;;;;;;;;10236965;28;20083;-68
2022/02/11 00:10:02;;;;;;;15.35;12.73;;;;;;;;;;10238447;28;20088;-67
2022/02/11 00:15:21;;;;;;;6.68;5.90;;;;;;;;;;10243880;28;20041;-68
2022/02/11 00:20:20;;;;;;;6.55;5.40;;;;;;;;;;10241800;28;20522;-68
2022/02/11 00:25:20;;;;;;;6.63;5.50;;;;;;;;;;10243355;28;20076;-68
2022/02/11 00:30:54;;;;;;;35.20;20.70;;;;;;;;;;10249951;28;20088;-68
2022/02/11 00:35:52;;;;;;;5.80;5.28;;;;;;;;;;10250761;28;20498;-68
2022/02/11 00:46:20;;;;;;;6.80;6.00;;;;;;;;;;10250462;28;20084;-68
2022/02/11 01:02:16;;;;;;;35.47;20.98;;;;;;;;;;10254891;28;20045;-68
2022/02/11 01:07:15;;;;;;;7.10;6.40;;;;;;;;;;10249845;28;20065;-69
2022/02/11 01:12:15;;;;;;;9.70;7.63;;;;;;;;;;10252428;28;20513;-68
2022/02/11 01:17:17;;;;;;;7.68;6.95;;;;;;;;;;10254926;28;20068;-68
2022/02/11 01:22:26;;;;;;;6.20;4.88;;;;;;;;;;10244575;28;20068;-69
2022/02/11 01:27:33;;;;;;;6.68;6.05;;;;;;;;;;10243696;28;20065;-69
2022/02/11 01:32:43;;;;;;;8.20;7.13;;;;;;;;;;10245382;28;20076;-67
2022/02/11 01:37:52;;;;;;;7.38;6.68;;;;;;;;;;10243440;28;20502;-68
2022/02/11 01:53:36;;;;;;;14.75;8.50;;;;;;;;;;10247290;28;20561;-69
2022/02/11 01:59:01;;;;;;;25.73;13.52;;;;;;;;;;10245319;28;20069;-69
2022/02/11 02:21:02;;;;;;;9.82;7.35;;;;;;;;;;10223690;28;20484;-68
2022/02/11 02:25:56;;;;;;;7.90;5.95;;;;;;;;;;10249018;28;20537;-68
2022/02/11 02:57:26;;;;;;;7.45;5.00;;;;;;;;;;10241668;28;20133;-68
2022/02/11 03:50:34;;;;;;;7.57;5.50;;;;;;;;;;10246713;28;20065;-68
2022/02/11 04:22:22;;;;;;;6.93;6.22;;;;;;;;;;10248872;28;20069;-69
2022/02/11 05:04:12;;;;;;;8.85;6.15;;;;;;;;;;10254051;28;20057;-69
2022/02/11 05:09:10;;;;;;;7.55;5.88;;;;;;;;;;10246388;28;20046;-69
2022/02/11 05:14:09;;;;;;;6.35;5.63;;;;;;;;;;10244174;28;20187;-68
2022/02/11 05:19:07;;;;;;;11.35;7.50;;;;;;;;;;10248499;28;20061;-70
2022/02/11 05:24:07;;;;;;;24.42;14.13;;;;;;;;;;10251102;28;20057;-70
2022/02/11 05:29:05;;;;;;;8.38;5.90;;;;;;;;;;10254609;28;20144;-70
2022/02/11 05:34:03;;;;;;;11.27;6.72;;;;;;;;;;10256267;28;20298;-71
2022/02/11 05:39:02;;;;;;;7.35;5.97;;;;;;;;;;10245348;28;20059;-70
2022/02/11 05:44:01;;;;;;;5.43;4.93;;;;;;;;;;10245415;28;20083;-69
2022/02/11 05:49:00;;;;;;;6.90;5.80;;;;;;;;;;10243707;28;20073;-70
2022/02/11 05:53:58;;;;;;;9.43;5.95;;;;;;;;;;10247407;28;20077;-72
2022/02/11 05:58:56;;;;;;;6.40;5.80;;;;;;;;;;10249998;28;20064;-71
2022/02/11 06:03:56;;;;;;;8.15;5.43;;;;;;;;;;10241546;28;20077;-71
2022/02/11 06:08:54;;;;;;;6.28;5.68;;;;;;;;;;10239819;28;20077;-70
2022/02/11 06:13:53;;;;;;;6.82;5.65;;;;;;;;;;10241005;28;20068;-71
2022/02/11 06:18:52;;;;;;;6.93;6.25;;;;;;;;;;10245577;28;20068;-71
2022/02/11 06:23:55;;;;;;;12.40;10.07;;;;;;;;;;10239195;28;20069;-71
2022/02/11 06:28:56;;;;;;;;;;;;;;;;;;10245973;28;20056;-71
2022/02/11 06:33:56;;;;;;;16.73;13.00;;;;;;;;;;10240432;28;19949;-70
2022/02/11 06:38:56;;;;;;;83.95;48.35;;;;;;;;;;10249181;28;20037;-69
2022/02/11 06:43:54;;;;;;;56.65;37.50;;;;;;;;;;10249165;28;20064;-70
2022/02/11 06:48:53;;;;;;;62.05;38.58;;;;;;;;;;10249038;28;20052;-71
2022/02/11 06:53:51;;;;;;;94.88;66.43;;;;;;;;;;10242936;28;20168;-71
2022/02/11 06:58:53;;;;;;;56.08;42.28;;;;;;;;;;10245437;28;20072;-70
2022/02/11 07:03:51;;;;;;;46.13;34.13;;;;;;;;;;10243489;28;20046;-70
2022/02/11 07:08:49;;;;;;;38.38;28.73;;;;;;;;;;10244118;28;20112;-67
2022/02/11 07:13:47;;;;;;;58.35;35.42;;;;;;;;;;10244072;28;20068;-68
2022/02/11 07:18:47;;;;;;;18.92;15.13;;;;;;;;;;10245102;28;20061;-68
2022/02/11 07:23:45;;;;;;;13.98;10.77;;;;;;;;;;10247545;28;20084;-68
2022/02/11 07:28:46;;;;;;;12.48;10.45;;;;;;;;;;10255248;28;20087;-67
2022/02/11 07:33:45;;;;;;;9.98;8.90;;;;;;;;;;10246076;28;20096;-71
2022/02/11 07:38:44;;;;;;;16.58;11.73;;;;;;;;;;10240634;28;20080;-71
2022/02/11 07:43:45;;;;;;;24.45;15.75;;;;;;;;;;10238992;28;20046;-70
2022/02/11 07:48:43;;;;;;;22.25;15.05;;;;;;;;;;10241196;28;20073;-70
2022/02/11 07:53:45;;;;;;;25.38;14.90;;;;;;;;;;10241730;28;20145;-71
2022/02/11 07:58:45;;;;;;;28.65;18.13;;;;;;;;;;10243234;28;20506;-71
2022/02/11 08:03:43;;;;;;;52.55;33.17;;;;;;;;;;10239807;28;20045;-71
2022/02/11 08:08:41;;;;;;;19.42;15.07;;;;;;;;;;10245362;28;20096;-71
2022/02/11 08:13:40;;;;;;;23.27;15.90;;;;;;;;;;10243495;28;20458;-71
2022/02/11 08:18:39;;;;;;;21.80;12.50;;;;;;;;;;10252684;28;20596;-71
2022/02/11 08:23:45;;;;;;;20.10;15.43;;;;;;;;;;10241524;28;20454;-71
2022/02/11 08:28:43;;;;;;;16.42;11.95;;;;;;;;;;10244667;28;20458;-71
2022/02/11 08:33:46;;;;;;;20.58;11.82;;;;;;;;;;10240483;28;20080;-71
2022/02/11 08:38:44;;;;;;;16.85;10.77;;;;;;;;;;10253620;28;20474;-71
2022/02/11 08:43:43;;;;;;;20.25;14.15;;;;;;;;;;10246932;28;20090;-71
2022/02/11 08:48:43;;;;;;;13.45;11.05;;;;;;;;;;10241972;28;20076;-71
2022/02/11 08:53:42;;;;;;;14.45;10.18;;;;;;;;;;10252250;28;20069;-71
2022/02/11 08:58:40;;;;;;;20.80;15.32;;;;;;;;;;10250321;28;20431;-71
2022/02/11 09:03:39;;;;;;;30.60;22.42;;;;;;;;;;10246021;28;20049;-70
2022/02/11 09:08:40;;;;;;;29.92;20.10;;;;;;;;;;10246323;28;20056;-71
2022/02/11 09:13:39;;;;;;;23.98;15.32;;;;;;;;;;10246973;28;20099;-71
2022/02/11 09:18:37;;;;;;;20.23;14.10;;;;;;;;;;10248245;28;20435;-71
2022/02/11 09:23:35;;;;;;;19.20;12.45;;;;;;;;;;10248804;28;20084;-71
2022/02/11 09:28:37;;;;;;;15.52;10.82;;;;;;;;;;10248751;28;20057;-71
2022/02/11 09:33:36;;;;;;;22.63;15.05;;;;;;;;;;10246257;28;20530;-70
2022/02/11 09:38:35;;;;;;;24.98;17.23;;;;;;;;;;10247462;28;20071;-70
2022/02/11 09:43:33;;;;;;;18.55;15.15;;;;;;;;;;10249349;28;20475;-70
2022/02/11 09:48:33;;;;;;;18.83;14.25;;;;;;;;;;10253332;28;20084;-71
2022/02/11 09:53:30;;;;;;;19.55;15.43;;;;;;;;;;10252253;28;20522;-71
2022/02/11 09:58:30;;;;;;;24.38;16.40;;;;;;;;;;10254503;28;20075;-71
2022/02/11 10:03:29;;;;;;;17.77;14.50;;;;;;;;;;10244492;28;20110;-72
2022/02/11 10:08:30;;;;;;;24.63;17.55;;;;;;;;;;10245460;28;20535;-72
2022/02/11 10:13:31;;;;;;;18.30;14.68;;;;;;;;;;10248147;28;20073;-72
2022/02/11 10:18:30;;;;;;;23.30;15.35;;;;;;;;;;10248020;28;20049;-72
2022/02/11 10:23:30;;;;;;;37.70;25.13;;;;;;;;;;10247459;28;20099;-71
2022/02/11 10:28:32;;;;;;;18.25;16.25;;;;;;;;;;10244973;28;20086;-71
2022/02/11 10:33:47;;;;;;;23.50;18.25;;;;;;;;;;10244734;28;20086;-71
2022/02/11 10:39:00;;;;;;;23.90;15.40;;;;;;;;;;10245043;28;20065;-71
2022/02/11 10:43:59;;;;;;;22.95;15.40;;;;;;;;;;10249924;28;20077;-71
2022/02/11 10:48:59;;;;;;;18.70;15.80;;;;;;;;;;10243287;28;20476;-72
2022/02/11 10:53:59;;;;;;;16.08;14.35;;;;;;;;;;10247708;28;20103;-71
2022/02/11 10:58:58;;;;;;;17.75;15.27;;;;;;;;;;10244119;28;20520;-70
2022/02/11 11:03:57;;;;;;;20.48;16.63;;;;;;;;;;10248357;28;20065;-71
2022/02/11 11:08:57;;;;;;;21.08;16.23;;;;;;;;;;10245581;28;20466;-71
2022/02/11 11:13:57;;;;;;;19.52;14.30;;;;;;;;;;10239950;28;20458;-72
2022/02/11 11:18:58;;;;;;;20.25;12.75;;;;;;;;;;10241188;28;20053;-71
2022/02/11 11:23:57;;;;;;;16.17;12.05;;;;;;;;;;10243793;28;20053;-72
2022/02/11 11:29:03;;;;;;;20.77;13.32;;;;;;;;;;10237362;28;20080;-72
2022/02/11 11:34:21;;;;;;;15.63;12.88;;;;;;;;;;10238338;28;20073;-71
2022/02/11 11:39:19;;;;;;;23.42;14.18;;;;;;;;;;10239373;28;20073;-71
2022/02/11 11:44:20;;;;;;;20.98;13.20;;;;;;;;;;10239517;28;20068;-70
2022/02/11 11:49:20;;;;;;;22.98;13.85;;;;;;;;;;10243891;28;20065;-71
2022/02/11 11:54:23;;;;;;;16.92;12.52;;;;;;;;;;10241454;28;20091;-70
2022/02/11 11:59:24;;;;;;;17.30;11.60;;;;;;;;;;10244469;28;20046;-71
2022/02/11 12:04:23;;;;;;;13.48;10.05;;;;;;;;;;10243848;28;20521;-72
2022/02/11 12:09:22;;;;;;;17.40;11.48;;;;;;;;;;10247352;28;20459;-72
2022/02/11 12:14:20;;;;;;;17.52;12.05;;;;;;;;;;10244656;28;20068;-72
2022/02/11 12:19:22;;;;;;;18.10;12.00;;;;;;;;;;10241012;28;20163;-71
2022/02/11 12:29:37;;;;;;;21.95;13.20;;;;;;;;;;10261441;28;20068;-72
2022/02/11 12:34:36;;;;;;;15.27;11.02;;;;;;;;;;10257220;28;20087;-72
2022/02/11 12:39:35;;;;;;;15.65;12.13;;;;;;;;;;10250163;28;20065;-72
2022/02/11 12:44:34;;;;;;;14.90;12.02;;;;;;;;;;10247532;28;20077;-73
2022/02/11 12:49:33;;;;;;;22.00;13.27;;;;;;;;;;10256104;28;20033;-72
2022/02/11 12:54:33;;;;;;;21.15;12.10;;;;;;;;;;10248101;28;20080;-72
2022/02/11 12:59:36;;;;;;;;;;;;;;;;;;10252921;28;20073;-72
2022/02/11 13:04:34;;;;;;;21.98;11.05;;;;;;;;;;10250726;28;19957;-72
2022/02/11 13:09:34;;;;;;;25.92;14.85;;;;;;;;;;10254809;28;20051;-72
2022/02/11 13:14:42;;;;;;;15.27;10.43;;;;;;;;;;10249198;28;20496;-73
2022/02/11 13:19:40;;;;;;;15.55;11.30;;;;;;;;;;10249466;28;20083;-72
2022/02/11 13:24:40;;;;;;;17.15;10.68;;;;;;;;;;10250253;28;20068;-73
2022/02/11 13:29:38;;;;;;;25.25;15.82;;;;;;;;;;10251951;28;20064;-71
2022/02/11 13:34:59;;;;;;;19.13;12.57;;;;;;;;;;10252033;28;20072;-71
2022/02/11 13:40:09;;;;;;;12.40;9.18;;;;;;;;;;10254064;28;20037;-71
2022/02/11 13:45:11;;;;;;;12.73;9.77;;;;;;;;;;10250451;28;20081;-71
2022/02/11 13:50:09;;;;;;;16.77;10.55;;;;;;;;;;10244091;28;20061;-71
2022/02/11 13:55:12;;;;;;;16.05;11.45;;;;;;;;;;10251872;28;20076;-72
2022/02/11 14:00:27;;;;;;;12.65;8.82;;;;;;;;;;10247394;28;20389;-71
2022/02/11 14:05:29;;;;;;;10.90;8.07;;;;;;;;;;10243924;28;20084;-72
2022/02/11 14:10:29;;;;;;;12.27;7.13;;;;;;;;;;10243053;28;20061;-72
2022/02/11 14:15:28;;;;;;;12.60;9.68;;;;;;;;;;10247308;28;20084;-72
2022/02/11 14:20:26;;;;;;;14.68;8.95;;;;;;;;;;10246617;28;20041;-71
2022/02/11 14:25:25;;;;;;;10.95;8.05;;;;;;;;;;10244937;28;20447;-72
2022/02/11 14:30:28;;;;;;;15.32;9.63;;;;;;;;;;10245947;28;20080;-71
2022/02/11 14:35:26;;;;;;;15.73;9.65;;;;;;;;;;10244869;28;20069;-72
2022/02/11 14:40:24;;;;;;;19.95;12.57;;;;;;;;;;10244582;28;20065;-72
2022/02/11 14:45:23;;;;;;;20.45;13.55;;;;;;;;;;10244774;28;20104;-72
2022/02/11 14:50:22;;;;;;;12.45;8.30;;;;;;;;;;10246511;28;20068;-71
2022/02/11 14:55:21;;;;;;;18.00;9.57;;;;;;;;;;10243321;28;20073;-71
2022/02/11 15:00:19;;;;;;;23.58;16.40;;;;;;;;;;10242951;28;20069;-72
2022/02/11 15:05:17;;;;;;;35.90;19.90;;;;;;;;;;10246185;28;20095;-71
2022/02/11 15:10:19;;;;;;;28.50;18.52;;;;;;;;;;10251218;28;20510;-71
2022/02/11 15:15:18;;;;;;;43.22;31.35;;;;;;;;;;10249917;28;20450;-71
2022/02/11 15:20:16;;;;;;;57.40;43.67;;;;;;;;;;10239854;28;20045;-71
2022/02/11 15:25:15;;;;;;;25.58;20.48;;;;;;;;;;10251144;28;20069;-71
2022/02/11 15:30:15;;;;;;;27.67;19.77;;;;;;;;;;10244646;28;20072;-71
2022/02/11 15:35:13;;;;;;;31.92;22.63;;;;;;;;;;10242954;28;20072;-71
2022/02/11 15:40:12;;;;;;;31.83;21.00;;;;;;;;;;10242519;28;20052;-71
2022/02/11 15:45:10;;;;;;;54.67;33.97;;;;;;;;;;10242775;28;20129;-71
2022/02/11 15:50:10;;;;;;;54.92;34.75;;;;;;;;;;10241599;28;20090;-70
2022/02/11 15:55:10;;;;;;;31.38;22.65;;;;;;;;;;10250395;28;20061;-71
2022/02/11 16:00:09;;;;;;;28.75;20.40;;;;;;;;;;10244195;28;20076;-71
2022/02/11 16:05:08;;;;;;;45.53;31.02;;;;;;;;;;10245359;28;20461;-71
2022/02/11 16:10:09;;;;;;;42.95;34.03;;;;;;;;;;10246258;28;20064;-70
2022/02/11 16:15:10;;;;;;;35.38;27.88;;;;;;;;;;10247936;28;20068;-71
2022/02/11 16:20:13;;;;;;;124.32;93.35;;;;;;;;;;10250427;28;20040;-72
2022/02/11 16:25:13;;;;;;;97.10;69.18;;;;;;;;;;10250741;28;20038;-72
2022/02/11 16:30:11;;;;;;;178.85;99.57;;;;;;;;;;10252533;28;20518;-72
2022/02/11 16:35:10;;;;;;;116.93;66.20;;;;;;;;;;10245927;28;20037;-70
2022/02/11 16:40:09;;;;;;;169.00;98.47;;;;;;;;;;10244249;28;20044;-72
2022/02/11 16:45:09;;;;;;;102.80;67.47;;;;;;;;;;10242723;28;20091;-71
2022/02/11 16:50:08;;;;;;;124.18;74.60;;;;;;;;;;10238277;28;20068;-71
2022/02/11 16:55:08;;;;;;;95.03;59.42;;;;;;;;;;10238715;28;20072;-71
2022/02/11 17:00:07;;;;;;;114.53;65.00;;;;;;;;;;10239192;28;20037;-71
2022/02/11 17:05:09;;;;;;;188.98;115.50;;;;;;;;;;10245987;28;20087;-71
2022/02/11 17:10:09;;;;;;;116.22;72.70;;;;;;;;;;10240803;28;20561;-71
2022/02/11 17:15:11;;;;;;;178.55;128.48;;;;;;;;;;10253499;28;20073;-71
2022/02/11 17:20:13;;;;;;;50.72;39.92;;;;;;;;;;10248586;28;20069;-71
2022/02/11 17:25:13;;;;;;;25.30;19.52;;;;;;;;;;10247955;28;20061;-72
2022/02/11 17:30:14;;;;;;;35.95;24.00;;;;;;;;;;10246181;28;20075;-72
2022/02/11 17:35:14;;;;;;;21.10;15.43;;;;;;;;;;10248388;28;20083;-71
2022/02/11 17:40:12;;;;;;;34.25;23.55;;;;;;;;;;10250591;28;20064;-71
2022/02/11 17:45:11;;;;;;;67.03;46.17;;;;;;;;;;10246841;28;20087;-69
2022/02/11 17:50:09;;;;;;;35.28;23.10;;;;;;;;;;10244113;28;20061;-69
2022/02/11 17:55:10;;;;;;;87.65;50.25;;;;;;;;;;10253657;28;20187;-70
2022/02/11 18:00:10;;;;;;;54.78;31.60;;;;;;;;;;10247058;28;20163;-70
2022/02/11 18:05:12;;;;;;;90.85;51.42;;;;;;;;;;10241589;28;20403;-70
2022/02/11 18:10:12;;;;;;;144.70;74.88;;;;;;;;;;10250240;28;20073;-69
2022/02/11 18:15:11;;;;;;;189.73;94.43;;;;;;;;;;10244215;28;20060;-70
2022/02/11 18:20:10;;;;;;;263.60;134.68;;;;;;;;;;10245119;28;20471;-69
2022/02/11 18:25:10;;;;;;;335.17;186.00;;;;;;;;;;10247973;28;20518;-71
2022/02/11 18:30:10;;;;;;;223.95;131.48;;;;;;;;;;10243687;28;20069;-71
2022/02/11 18:35:10;;;;;;;141.95;89.43;;;;;;;;;;10250637;28;20174;-71
2022/02/11 18:40:08;;;;;;;42.22;29.00;;;;;;;;;;10245639;28;20139;-70
2022/02/11 18:45:07;;;;;;;21.55;13.35;;;;;;;;;;10247253;28;20088;-71
2022/02/11 18:50:10;;;;;;;17.88;10.73;;;;;;;;;;10246678;28;20455;-71
2022/02/11 18:55:09;;;;;;;24.52;13.75;;;;;;;;;;10246535;28;20060;-71
2022/02/11 19:00:26;;;;;;;65.18;42.15;;;;;;;;;;10270509;28;20041;-70
2022/02/11 19:05:27;;;;;;;31.70;20.67;;;;;;;;;;10244618;28;20077;-70
2022/02/11 19:10:25;;;;;;;23.92;17.30;;;;;;;;;;10244756;28;20065;-70
2022/02/11 19:15:26;;;;;;;47.47;30.58;;;;;;;;;;10247147;28;20573;-70
2022/02/11 19:20:27;;;;;;;62.38;36.97;;;;;;;;;;10240954;28;20431;-70
2022/02/11 19:25:28;;;;;;;40.67;27.42;;;;;;;;;;10241544;28;20072;-70
2022/02/11 19:30:28;;;;;;;19.20;15.15;;;;;;;;;;10244545;28;20069;-70
2022/02/11 19:35:28;;;;;;;23.92;17.05;;;;;;;;;;10239842;28;20068;-70
2022/02/11 19:40:26;;;;;;;19.98;15.05;;;;;;;;;;10240287;28;20077;-70
2022/02/11 19:45:25;;;;;;;19.55;14.82;;;;;;;;;;10238948;28;20061;-71
2022/02/11 19:50:23;;;;;;;53.20;33.10;;;;;;;;;;10240883;28;20064;-70
2022/02/11 19:55:23;;;;;;;18.98;10.55;;;;;;;;;;10241744;28;20147;-71
2022/02/11 20:00:21;;;;;;;56.70;33.58;;;;;;;;;;10244006;28;20068;-70
2022/02/11 20:05:21;;;;;;;39.72;22.73;;;;;;;;;;10242396;28;20069;-70
2022/02/11 20:10:21;;;;;;;29.27;20.30;;;;;;;;;;10242861;28;20439;-70
2022/02/11 20:15:21;;;;;;;23.48;16.67;;;;;;;;;;10243250;28;20464;-70
2022/02/11 20:20:20;;;;;;;58.40;35.47;;;;;;;;;;10243606;28;20498;-70
2022/02/11 20:25:20;;;;;;;26.73;18.92;;;;;;;;;;10245776;28;20069;-70
2022/02/11 20:30:24;;;;;;;25.52;17.42;;;;;;;;;;10243412;28;20049;-70
2022/02/11 20:35:29;;;;;;;20.27;14.80;;;;;;;;;;10253497;28;20064;-71
2022/02/11 20:40:27;;;;;;;27.75;20.83;;;;;;;;;;10251313;28;20605;-70
2022/02/11 20:45:29;;;;;;;33.33;22.33;;;;;;;;;;10241943;28;20092;-71
2022/02/11 20:50:33;;;;;;;25.35;18.23;;;;;;;;;;10248330;28;20064;-70
2022/02/11 20:55:31;;;;;;;37.35;21.52;;;;;;;;;;10247634;28;20073;-70
2022/02/11 21:00:31;;;;;;;84.03;47.92;;;;;;;;;;10248678;28;20080;-70
2022/02/11 21:05:31;;;;;;;112.10;68.05;;;;;;;;;;10248131;28;20550;-71
2022/02/11 21:10:31;;;;;;;32.10;22.05;;;;;;;;;;10249305;28;20542;-69
2022/02/11 21:15:29;;;;;;;17.75;14.43;;;;;;;;;;10246914;28;20041;-69
2022/02/11 21:20:28;;;;;;;16.38;10.38;;;;;;;;;;10247257;28;20088;-69
2022/02/11 21:25:27;;;;;;;18.85;10.40;;;;;;;;;;10247690;28;20049;-69
2022/02/11 21:30:31;;;;;;;16.48;9.82;;;;;;;;;;10248864;28;20061;-69
2022/02/11 21:35:30;;;;;;;15.73;9.85;;;;;;;;;;10249507;28;20065;-70
2022/02/11 21:40:29;;;;;;;20.35;11.23;;;;;;;;;;10250874;28;20076;-70
2022/02/11 21:45:28;;;;;;;15.80;11.00;;;;;;;;;;10249932;28;20061;-69
2022/02/11 21:50:26;;;;;;;13.43;8.90;;;;;;;;;;10249107;28;20069;-69
2022/02/11 21:55:24;;;;;;;40.47;24.45;;;;;;;;;;10250490;28;20493;-69
2022/02/11 22:00:24;;;;;;;59.42;37.05;;;;;;;;;;10243910;28;20084;-69
2022/02/11 22:05:22;;;;;;;12.02;10.48;;;;;;;;;;10243933;28;20459;-69
2022/02/11 22:10:21;;;;;;;13.93;10.65;;;;;;;;;;10249096;28;20076;-69
2022/02/11 22:15:19;;;;;;;13.68;10.25;;;;;;;;;;10243163;28;20069;-69
2022/02/11 22:20:19;;;;;;;13.98;9.18;;;;;;;;;;10243358;28;20081;-69
2022/02/11 22:25:17;;;;;;;14.20;11.45;;;;;;;;;;10245510;28;20075;-70
2022/02/11 22:30:15;;;;;;;17.05;12.15;;;;;;;;;;10244570;28;20077;-70
2022/02/11 22:35:14;;;;;;;16.98;12.25;;;;;;;;;;10246206;28;20065;-70
2022/02/11 22:40:14;;;;;;;16.92;11.98;;;;;;;;;;10261832;28;20113;-70
2022/02/11 22:45:13;;;;;;;13.93;9.60;;;;;;;;;;10242704;28;20077;-70
2022/02/11 22:55:29;;;;;;;16.50;9.35;;;;;;;;;;10244362;28;20065;-70
2022/02/11 23:00:33;;;;;;;18.77;11.45;;;;;;;;;;10241787;28;20077;-71
2022/02/11 23:10:53;;;;;;;21.48;14.77;;;;;;;;;;10253163;28;20491;-70
2022/02/11 23:15:52;;;;;;;18.85;11.90;;;;;;;;;;10244225;28;20063;-70
2022/02/11 23:20:50;;;;;;;21.02;13.43;;;;;;;;;;10240248;28;20122;-70
2022/02/11 23:25:51;;;;;;;17.38;12.73;;;;;;;;;;10250329;28;20057;-70
2022/02/11 23:30:52;;;;;;;18.55;10.75;;;;;;;;;;10245524;28;20816;-70
2022/02/11 23:35:50;;;;;;;21.95;14.55;;;;;;;;;;10246041;28;20080;-69
2022/02/11 23:40:48;;;;;;;17.45;13.20;;;;;;;;;;10242382;28;20545;-69
2022/02/11 23:45:47;;;;;;;13.45;10.25;;;;;;;;;;10241911;28;20081;-68
2022/02/11 23:50:47;;;;;;;16.20;11.35;;;;;;;;;;10239702;28;20048;-69
2022/02/11 23:55:45;;;;;;;17.60;10.77;;;;;;;;;;10244315;28;20517;-70
